sensor_id;sensor_type;location;lat;lon;timestamp;P1;durP1;ratioP1;P2;durP2;ratioP2
13797;SDS011;6970;51.340;3.240;2023-04-09T00:02:02;51.63;;;31.67;;
13797;SDS011;6970;51.340;3.240;2023-04-09T00:04:29;49.37;;;29.97;;
13797;SDS011;6970;51.340;3.240;2023-04-09T00:06:56;44.00;;;28.03;;
13797;SDS011;6970;51.340;3.240;2023-04-09T00:09:23;44.57;;;31.20;;
13797;SDS011;6970;51.340;3.240;2023-04-09T00:11:50;46.23;;;30.90;;
13797;SDS011;6970;51.340;3.240;2023-04-09T00:14:17;44.53;;;28.87;;
13797;SDS011;6970;51.340;3.240;2023-04-09T00:16:44;48.93;;;29.83;;
13797;SDS011;6970;51.340;3.240;2023-04-09T00:19:11;39.57;;;27.77;;
13797;SDS011;6970;51.340;3.240;2023-04-09T00:21:38;41.97;;;27.73;;
13797;SDS011;6970;51.340;3.240;2023-04-09T00:24:05;39.00;;;27.30;;
13797;SDS011;6970;51.340;3.240;2023-04-09T00:26:32;44.80;;;28.47;;
13797;SDS011;6970;51.340;3.240;2023-04-09T00:28:59;38.13;;;27.40;;
13797;SDS011;6970;51.340;3.240;2023-04-09T00:31:26;36.73;;;27.43;;
13797;SDS011;6970;51.340;3.240;2023-04-09T00:33:53;42.93;;;28.77;;
13797;SDS011;6970;51.340;3.240;2023-04-09T00:36:21;43.57;;;28.97;;
13797;SDS011;6970;51.340;3.240;2023-04-09T00:38:51;42.57;;;29.00;;
13797;SDS011;6970;51.340;3.240;2023-04-09T00:41:19;41.43;;;29.03;;
13797;SDS011;6970;51.340;3.240;2023-04-09T00:43:46;39.50;;;27.63;;
13797;SDS011;6970;51.340;3.240;2023-04-09T00:46:13;40.90;;;27.27;;
13797;SDS011;6970;51.340;3.240;2023-04-09T00:48:41;38.53;;;27.33;;
13797;SDS011;6970;51.340;3.240;2023-04-09T00:51:08;38.23;;;28.87;;
13797;SDS011;6970;51.340;3.240;2023-04-09T00:53:35;39.10;;;28.07;;
13797;SDS011;6970;51.340;3.240;2023-04-09T00:56:02;41.23;;;27.90;;
13797;SDS011;6970;51.340;3.240;2023-04-09T00:58:30;38.17;;;27.83;;
13797;SDS011;6970;51.340;3.240;2023-04-09T01:00:57;36.30;;;26.30;;
13797;SDS011;6970;51.340;3.240;2023-04-09T01:03:24;40.10;;;27.97;;
13797;SDS011;6970;51.340;3.240;2023-04-09T01:11:34;38.93;;;26.97;;
13797;SDS011;6970;51.340;3.240;2023-04-09T01:16:54;37.33;;;27.03;;
13797;SDS011;6970;51.340;3.240;2023-04-09T01:27:54;36.97;;;26.33;;
13797;SDS011;6970;51.340;3.240;2023-04-09T01:30:34;38.53;;;27.17;;
13797;SDS011;6970;51.340;3.240;2023-04-09T01:33:02;41.20;;;27.90;;
13797;SDS011;6970;51.340;3.240;2023-04-09T01:35:30;42.73;;;28.47;;
13797;SDS011;6970;51.340;3.240;2023-04-09T01:37:58;43.07;;;28.03;;
13797;SDS011;6970;51.340;3.240;2023-04-09T01:40:26;41.33;;;27.50;;
13797;SDS011;6970;51.340;3.240;2023-04-09T01:42:53;35.60;;;25.70;;
13797;SDS011;6970;51.340;3.240;2023-04-09T01:45:21;38.90;;;27.37;;
13797;SDS011;6970;51.340;3.240;2023-04-09T01:47:49;40.33;;;26.83;;
13797;SDS011;6970;51.340;3.240;2023-04-09T01:50:16;40.00;;;26.53;;
13797;SDS011;6970;51.340;3.240;2023-04-09T01:52:43;37.60;;;26.27;;
13797;SDS011;6970;51.340;3.240;2023-04-09T01:55:10;38.27;;;27.03;;
13797;SDS011;6970;51.340;3.240;2023-04-09T01:57:37;37.00;;;26.33;;
13797;SDS011;6970;51.340;3.240;2023-04-09T02:00:05;35.57;;;26.57;;
13797;SDS011;6970;51.340;3.240;2023-04-09T02:02:35;38.03;;;26.07;;
13797;SDS011;6970;51.340;3.240;2023-04-09T02:05:08;34.17;;;24.77;;
13797;SDS011;6970;51.340;3.240;2023-04-09T02:07:37;38.23;;;25.50;;
13797;SDS011;6970;51.340;3.240;2023-04-09T02:10:06;40.20;;;27.43;;
13797;SDS011;6970;51.340;3.240;2023-04-09T02:12:36;32.60;;;24.50;;
13797;SDS011;6970;51.340;3.240;2023-04-09T02:15:05;36.00;;;24.67;;
13797;SDS011;6970;51.340;3.240;2023-04-09T02:17:33;35.77;;;25.83;;
13797;SDS011;6970;51.340;3.240;2023-04-09T02:20:00;32.50;;;25.40;;
13797;SDS011;6970;51.340;3.240;2023-04-09T02:22:27;36.30;;;25.33;;
13797;SDS011;6970;51.340;3.240;2023-04-09T02:24:55;40.27;;;25.93;;
13797;SDS011;6970;51.340;3.240;2023-04-09T02:27:22;36.27;;;25.57;;
13797;SDS011;6970;51.340;3.240;2023-04-09T02:29:49;35.37;;;24.83;;
13797;SDS011;6970;51.340;3.240;2023-04-09T02:32:16;36.97;;;25.80;;
13797;SDS011;6970;51.340;3.240;2023-04-09T02:34:43;35.93;;;25.30;;
13797;SDS011;6970;51.340;3.240;2023-04-09T02:37:11;37.60;;;26.33;;
13797;SDS011;6970;51.340;3.240;2023-04-09T02:39:37;36.87;;;25.40;;
13797;SDS011;6970;51.340;3.240;2023-04-09T02:42:04;36.83;;;25.93;;
13797;SDS011;6970;51.340;3.240;2023-04-09T02:44:33;38.97;;;25.70;;
13797;SDS011;6970;51.340;3.240;2023-04-09T02:47:00;35.20;;;26.10;;
13797;SDS011;6970;51.340;3.240;2023-04-09T02:49:27;36.63;;;25.27;;
13797;SDS011;6970;51.340;3.240;2023-04-09T02:51:54;33.97;;;25.07;;
13797;SDS011;6970;51.340;3.240;2023-04-09T02:54:20;41.17;;;25.97;;
13797;SDS011;6970;51.340;3.240;2023-04-09T02:56:47;36.53;;;24.77;;
13797;SDS011;6970;51.340;3.240;2023-04-09T02:59:14;32.00;;;25.30;;
13797;SDS011;6970;51.340;3.240;2023-04-09T03:01:41;33.20;;;25.40;;
13797;SDS011;6970;51.340;3.240;2023-04-09T03:04:09;37.50;;;25.30;;
13797;SDS011;6970;51.340;3.240;2023-04-09T03:06:36;33.57;;;24.70;;
13797;SDS011;6970;51.340;3.240;2023-04-09T03:09:02;36.90;;;25.40;;
13797;SDS011;6970;51.340;3.240;2023-04-09T03:11:29;36.03;;;25.50;;
13797;SDS011;6970;51.340;3.240;2023-04-09T03:13:56;37.23;;;26.93;;
13797;SDS011;6970;51.340;3.240;2023-04-09T03:16:23;37.33;;;27.57;;
13797;SDS011;6970;51.340;3.240;2023-04-09T03:18:51;35.20;;;25.43;;
13797;SDS011;6970;51.340;3.240;2023-04-09T03:21:19;33.70;;;25.43;;
13797;SDS011;6970;51.340;3.240;2023-04-09T03:23:46;36.90;;;26.77;;
13797;SDS011;6970;51.340;3.240;2023-04-09T03:26:13;40.23;;;26.40;;
13797;SDS011;6970;51.340;3.240;2023-04-09T03:28:40;37.60;;;25.60;;
13797;SDS011;6970;51.340;3.240;2023-04-09T03:31:07;36.67;;;26.63;;
13797;SDS011;6970;51.340;3.240;2023-04-09T03:33:34;35.47;;;25.53;;
13797;SDS011;6970;51.340;3.240;2023-04-09T03:36:01;36.97;;;25.80;;
13797;SDS011;6970;51.340;3.240;2023-04-09T03:38:28;37.07;;;25.77;;
13797;SDS011;6970;51.340;3.240;2023-04-09T03:40:55;41.37;;;25.80;;
13797;SDS011;6970;51.340;3.240;2023-04-09T03:43:22;37.07;;;25.40;;
13797;SDS011;6970;51.340;3.240;2023-04-09T03:45:49;37.73;;;26.73;;
13797;SDS011;6970;51.340;3.240;2023-04-09T03:48:16;38.43;;;27.10;;
13797;SDS011;6970;51.340;3.240;2023-04-09T03:50:43;36.77;;;26.13;;
13797;SDS011;6970;51.340;3.240;2023-04-09T03:53:10;43.33;;;27.30;;
13797;SDS011;6970;51.340;3.240;2023-04-09T03:55:37;41.70;;;27.87;;
13797;SDS011;6970;51.340;3.240;2023-04-09T03:58:03;39.87;;;27.30;;
13797;SDS011;6970;51.340;3.240;2023-04-09T04:00:31;41.17;;;27.17;;
13797;SDS011;6970;51.340;3.240;2023-04-09T04:02:58;43.63;;;28.10;;
13797;SDS011;6970;51.340;3.240;2023-04-09T04:05:25;41.97;;;25.93;;
13797;SDS011;6970;51.340;3.240;2023-04-09T04:07:52;43.37;;;27.40;;
13797;SDS011;6970;51.340;3.240;2023-04-09T04:10:19;41.23;;;28.17;;
13797;SDS011;6970;51.340;3.240;2023-04-09T04:12:46;41.77;;;27.67;;
13797;SDS011;6970;51.340;3.240;2023-04-09T04:15:13;42.37;;;27.73;;
13797;SDS011;6970;51.340;3.240;2023-04-09T04:17:40;45.27;;;26.87;;
13797;SDS011;6970;51.340;3.240;2023-04-09T04:20:07;42.37;;;27.73;;
13797;SDS011;6970;51.340;3.240;2023-04-09T04:22:35;40.67;;;27.20;;
13797;SDS011;6970;51.340;3.240;2023-04-09T04:25:03;42.80;;;29.20;;
13797;SDS011;6970;51.340;3.240;2023-04-09T04:27:30;46.90;;;29.70;;
13797;SDS011;6970;51.340;3.240;2023-04-09T04:29:57;45.60;;;29.83;;
13797;SDS011;6970;51.340;3.240;2023-04-09T04:32:25;42.40;;;27.77;;
13797;SDS011;6970;51.340;3.240;2023-04-09T04:34:52;46.47;;;28.50;;
13797;SDS011;6970;51.340;3.240;2023-04-09T04:37:20;43.53;;;28.27;;
13797;SDS011;6970;51.340;3.240;2023-04-09T04:39:47;39.93;;;26.80;;
13797;SDS011;6970;51.340;3.240;2023-04-09T04:42:14;45.07;;;30.30;;
13797;SDS011;6970;51.340;3.240;2023-04-09T04:44:42;44.73;;;29.03;;
13797;SDS011;6970;51.340;3.240;2023-04-09T04:47:09;48.90;;;29.90;;
13797;SDS011;6970;51.340;3.240;2023-04-09T04:49:37;50.80;;;30.93;;
13797;SDS011;6970;51.340;3.240;2023-04-09T04:52:04;46.23;;;30.50;;
13797;SDS011;6970;51.340;3.240;2023-04-09T04:54:32;52.23;;;31.83;;
13797;SDS011;6970;51.340;3.240;2023-04-09T04:56:59;44.17;;;29.23;;
13797;SDS011;6970;51.340;3.240;2023-04-09T04:59:28;52.87;;;32.00;;
13797;SDS011;6970;51.340;3.240;2023-04-09T05:01:55;50.27;;;33.20;;
13797;SDS011;6970;51.340;3.240;2023-04-09T05:04:22;48.07;;;32.13;;
13797;SDS011;6970;51.340;3.240;2023-04-09T05:06:49;50.37;;;31.47;;
13797;SDS011;6970;51.340;3.240;2023-04-09T05:09:16;49.23;;;31.07;;
13797;SDS011;6970;51.340;3.240;2023-04-09T05:11:47;56.33;;;34.13;;
13797;SDS011;6970;51.340;3.240;2023-04-09T05:14:14;54.87;;;36.70;;
13797;SDS011;6970;51.340;3.240;2023-04-09T05:16:41;53.53;;;34.23;;
13797;SDS011;6970;51.340;3.240;2023-04-09T05:19:08;49.30;;;32.80;;
13797;SDS011;6970;51.340;3.240;2023-04-09T05:21:35;50.40;;;32.60;;
13797;SDS011;6970;51.340;3.240;2023-04-09T05:24:02;49.33;;;32.47;;
13797;SDS011;6970;51.340;3.240;2023-04-09T05:26:29;49.03;;;31.23;;
13797;SDS011;6970;51.340;3.240;2023-04-09T05:28:56;48.13;;;31.87;;
13797;SDS011;6970;51.340;3.240;2023-04-09T05:31:23;48.10;;;31.47;;
13797;SDS011;6970;51.340;3.240;2023-04-09T05:33:50;50.20;;;31.33;;
13797;SDS011;6970;51.340;3.240;2023-04-09T05:36:18;49.80;;;32.20;;
13797;SDS011;6970;51.340;3.240;2023-04-09T05:38:45;47.33;;;30.17;;
13797;SDS011;6970;51.340;3.240;2023-04-09T05:41:13;49.47;;;32.50;;
13797;SDS011;6970;51.340;3.240;2023-04-09T05:43:40;46.90;;;31.43;;
13797;SDS011;6970;51.340;3.240;2023-04-09T05:46:09;48.40;;;32.90;;
13797;SDS011;6970;51.340;3.240;2023-04-09T05:48:36;52.33;;;33.20;;
13797;SDS011;6970;51.340;3.240;2023-04-09T05:51:03;50.07;;;31.90;;
13797;SDS011;6970;51.340;3.240;2023-04-09T05:53:30;48.33;;;32.17;;
13797;SDS011;6970;51.340;3.240;2023-04-09T05:55:57;67.60;;;37.43;;
13797;SDS011;6970;51.340;3.240;2023-04-09T05:58:24;55.87;;;34.10;;
13797;SDS011;6970;51.340;3.240;2023-04-09T06:00:53;52.67;;;34.07;;
13797;SDS011;6970;51.340;3.240;2023-04-09T06:03:20;48.90;;;33.33;;
13797;SDS011;6970;51.340;3.240;2023-04-09T06:05:47;52.57;;;33.47;;
13797;SDS011;6970;51.340;3.240;2023-04-09T06:08:15;49.53;;;32.73;;
13797;SDS011;6970;51.340;3.240;2023-04-09T06:10:42;52.43;;;33.37;;
13797;SDS011;6970;51.340;3.240;2023-04-09T06:13:09;56.07;;;33.50;;
13797;SDS011;6970;51.340;3.240;2023-04-09T06:15:37;52.07;;;33.90;;
13797;SDS011;6970;51.340;3.240;2023-04-09T06:18:04;49.40;;;32.60;;
13797;SDS011;6970;51.340;3.240;2023-04-09T06:20:31;52.23;;;32.67;;
13797;SDS011;6970;51.340;3.240;2023-04-09T06:22:58;55.33;;;33.67;;
13797;SDS011;6970;51.340;3.240;2023-04-09T06:25:26;58.07;;;35.30;;
13797;SDS011;6970;51.340;3.240;2023-04-09T06:27:53;53.57;;;34.47;;
13797;SDS011;6970;51.340;3.240;2023-04-09T06:30:19;52.57;;;34.80;;
13797;SDS011;6970;51.340;3.240;2023-04-09T06:32:47;57.23;;;34.10;;
13797;SDS011;6970;51.340;3.240;2023-04-09T06:35:20;55.67;;;35.23;;
13797;SDS011;6970;51.340;3.240;2023-04-09T06:37:47;53.03;;;34.77;;
13797;SDS011;6970;51.340;3.240;2023-04-09T06:40:14;58.53;;;36.97;;
13797;SDS011;6970;51.340;3.240;2023-04-09T06:42:41;52.23;;;33.53;;
13797;SDS011;6970;51.340;3.240;2023-04-09T06:45:08;54.83;;;35.03;;
13797;SDS011;6970;51.340;3.240;2023-04-09T06:47:35;52.97;;;33.73;;
13797;SDS011;6970;51.340;3.240;2023-04-09T06:50:03;53.77;;;34.07;;
13797;SDS011;6970;51.340;3.240;2023-04-09T06:52:30;58.03;;;36.53;;
13797;SDS011;6970;51.340;3.240;2023-04-09T06:54:57;50.43;;;33.93;;
13797;SDS011;6970;51.340;3.240;2023-04-09T06:57:24;56.57;;;35.93;;
13797;SDS011;6970;51.340;3.240;2023-04-09T06:59:51;52.33;;;34.87;;
13797;SDS011;6970;51.340;3.240;2023-04-09T07:02:18;49.87;;;34.20;;
13797;SDS011;6970;51.340;3.240;2023-04-09T07:04:45;53.50;;;35.43;;
13797;SDS011;6970;51.340;3.240;2023-04-09T07:07:13;56.40;;;35.37;;
13797;SDS011;6970;51.340;3.240;2023-04-09T07:09:41;54.90;;;35.27;;
13797;SDS011;6970;51.340;3.240;2023-04-09T07:12:08;58.90;;;37.17;;
13797;SDS011;6970;51.340;3.240;2023-04-09T07:14:35;56.47;;;36.53;;
13797;SDS011;6970;51.340;3.240;2023-04-09T07:17:01;56.47;;;36.80;;
13797;SDS011;6970;51.340;3.240;2023-04-09T07:19:28;60.50;;;38.13;;
13797;SDS011;6970;51.340;3.240;2023-04-09T07:21:56;57.43;;;38.07;;
13797;SDS011;6970;51.340;3.240;2023-04-09T07:24:24;51.13;;;35.10;;
13797;SDS011;6970;51.340;3.240;2023-04-09T07:26:51;54.90;;;35.80;;
13797;SDS011;6970;51.340;3.240;2023-04-09T07:29:18;51.57;;;35.37;;
13797;SDS011;6970;51.340;3.240;2023-04-09T07:31:47;52.77;;;36.23;;
13797;SDS011;6970;51.340;3.240;2023-04-09T07:34:14;50.40;;;35.77;;
13797;SDS011;6970;51.340;3.240;2023-04-09T07:36:42;56.50;;;37.93;;
13797;SDS011;6970;51.340;3.240;2023-04-09T07:39:09;56.23;;;38.87;;
13797;SDS011;6970;51.340;3.240;2023-04-09T07:41:36;59.77;;;38.63;;
13797;SDS011;6970;51.340;3.240;2023-04-09T07:44:03;56.97;;;39.27;;
13797;SDS011;6970;51.340;3.240;2023-04-09T07:46:31;59.03;;;40.73;;
13797;SDS011;6970;51.340;3.240;2023-04-09T07:48:58;57.80;;;39.87;;
13797;SDS011;6970;51.340;3.240;2023-04-09T07:51:25;60.00;;;40.40;;
13797;SDS011;6970;51.340;3.240;2023-04-09T07:53:53;58.97;;;40.07;;
13797;SDS011;6970;51.340;3.240;2023-04-09T07:56:19;56.93;;;38.83;;
13797;SDS011;6970;51.340;3.240;2023-04-09T07:58:46;53.40;;;38.43;;
13797;SDS011;6970;51.340;3.240;2023-04-09T08:01:14;58.80;;;39.20;;
13797;SDS011;6970;51.340;3.240;2023-04-09T08:03:41;52.63;;;37.93;;
13797;SDS011;6970;51.340;3.240;2023-04-09T08:06:09;54.47;;;38.27;;
13797;SDS011;6970;51.340;3.240;2023-04-09T08:08:36;49.57;;;36.63;;
13797;SDS011;6970;51.340;3.240;2023-04-09T08:11:03;51.93;;;38.03;;
13797;SDS011;6970;51.340;3.240;2023-04-09T08:13:30;52.40;;;36.60;;
13797;SDS011;6970;51.340;3.240;2023-04-09T08:15:59;51.60;;;35.87;;
13797;SDS011;6970;51.340;3.240;2023-04-09T08:18:27;46.40;;;35.10;;
13797;SDS011;6970;51.340;3.240;2023-04-09T08:20:55;42.87;;;33.23;;
13797;SDS011;6970;51.340;3.240;2023-04-09T08:23:22;46.03;;;34.30;;
13797;SDS011;6970;51.340;3.240;2023-04-09T08:25:49;43.23;;;32.00;;
13797;SDS011;6970;51.340;3.240;2023-04-09T08:28:17;39.87;;;32.07;;
13797;SDS011;6970;51.340;3.240;2023-04-09T08:30:44;45.47;;;34.30;;
13797;SDS011;6970;51.340;3.240;2023-04-09T08:33:13;40.67;;;31.80;;
13797;SDS011;6970;51.340;3.240;2023-04-09T08:35:40;46.27;;;32.87;;
13797;SDS011;6970;51.340;3.240;2023-04-09T08:38:07;38.63;;;32.27;;
13797;SDS011;6970;51.340;3.240;2023-04-09T08:40:35;40.77;;;31.27;;
13797;SDS011;6970;51.340;3.240;2023-04-09T08:43:05;40.93;;;31.93;;
13797;SDS011;6970;51.340;3.240;2023-04-09T08:45:34;40.57;;;31.70;;
13797;SDS011;6970;51.340;3.240;2023-04-09T08:48:02;44.10;;;32.57;;
13797;SDS011;6970;51.340;3.240;2023-04-09T08:50:30;39.50;;;31.47;;
13797;SDS011;6970;51.340;3.240;2023-04-09T08:53:01;38.03;;;30.77;;
13797;SDS011;6970;51.340;3.240;2023-04-09T08:55:30;36.57;;;31.17;;
13797;SDS011;6970;51.340;3.240;2023-04-09T08:58:02;39.30;;;30.97;;
13797;SDS011;6970;51.340;3.240;2023-04-09T09:00:31;38.33;;;30.03;;
13797;SDS011;6970;51.340;3.240;2023-04-09T09:05:42;38.80;;;31.90;;
13797;SDS011;6970;51.340;3.240;2023-04-09T09:08:11;42.00;;;32.77;;
13797;SDS011;6970;51.340;3.240;2023-04-09T09:10:51;40.57;;;32.10;;
13797;SDS011;6970;51.340;3.240;2023-04-09T09:15:53;40.50;;;32.10;;
13797;SDS011;6970;51.340;3.240;2023-04-09T09:18:40;34.87;;;30.03;;
13797;SDS011;6970;51.340;3.240;2023-04-09T09:21:12;38.10;;;31.77;;
13797;SDS011;6970;51.340;3.240;2023-04-09T09:23:40;35.43;;;30.23;;
13797;SDS011;6970;51.340;3.240;2023-04-09T09:26:11;35.73;;;30.50;;
13797;SDS011;6970;51.340;3.240;2023-04-09T09:28:47;36.33;;;31.03;;
13797;SDS011;6970;51.340;3.240;2023-04-09T09:31:14;38.87;;;31.87;;
13797;SDS011;6970;51.340;3.240;2023-04-09T09:33:43;36.83;;;30.50;;
13797;SDS011;6970;51.340;3.240;2023-04-09T09:36:10;35.87;;;31.37;;
13797;SDS011;6970;51.340;3.240;2023-04-09T09:38:54;37.83;;;32.73;;
13797;SDS011;6970;51.340;3.240;2023-04-09T09:41:23;37.77;;;32.20;;
13797;SDS011;6970;51.340;3.240;2023-04-09T09:43:50;37.33;;;31.77;;
13797;SDS011;6970;51.340;3.240;2023-04-09T09:46:17;37.47;;;30.67;;
13797;SDS011;6970;51.340;3.240;2023-04-09T09:48:46;36.33;;;30.93;;
13797;SDS011;6970;51.340;3.240;2023-04-09T09:51:15;35.23;;;30.27;;
13797;SDS011;6970;51.340;3.240;2023-04-09T09:53:43;36.80;;;31.80;;
13797;SDS011;6970;51.340;3.240;2023-04-09T09:56:15;40.53;;;32.97;;
13797;SDS011;6970;51.340;3.240;2023-04-09T10:01:25;36.77;;;31.53;;
13797;SDS011;6970;51.340;3.240;2023-04-09T10:03:54;36.70;;;32.20;;
13797;SDS011;6970;51.340;3.240;2023-04-09T10:06:25;36.97;;;32.73;;
13797;SDS011;6970;51.340;3.240;2023-04-09T10:08:55;37.10;;;32.47;;
13797;SDS011;6970;51.340;3.240;2023-04-09T10:11:23;38.00;;;33.87;;
13797;SDS011;6970;51.340;3.240;2023-04-09T10:13:56;36.47;;;31.90;;
13797;SDS011;6970;51.340;3.240;2023-04-09T10:16:26;39.13;;;33.60;;
13797;SDS011;6970;51.340;3.240;2023-04-09T10:18:54;35.50;;;31.67;;
13797;SDS011;6970;51.340;3.240;2023-04-09T10:23:56;32.90;;;29.40;;
13797;SDS011;6970;51.340;3.240;2023-04-09T10:26:25;33.33;;;29.73;;
13797;SDS011;6970;51.340;3.240;2023-04-09T10:29:03;32.53;;;29.10;;
13797;SDS011;6970;51.340;3.240;2023-04-09T10:31:53;33.70;;;30.17;;
13797;SDS011;6970;51.340;3.240;2023-04-09T10:34:28;30.33;;;27.13;;
13797;SDS011;6970;51.340;3.240;2023-04-09T10:36:55;32.90;;;29.50;;
13797;SDS011;6970;51.340;3.240;2023-04-09T10:39:27;39.10;;;34.43;;
13797;SDS011;6970;51.340;3.240;2023-04-09T10:41:57;35.17;;;31.43;;
13797;SDS011;6970;51.340;3.240;2023-04-09T10:44:26;36.30;;;32.47;;
13797;SDS011;6970;51.340;3.240;2023-04-09T10:46:57;34.23;;;30.87;;
13797;SDS011;6970;51.340;3.240;2023-04-09T10:49:25;34.47;;;30.77;;
13797;SDS011;6970;51.340;3.240;2023-04-09T10:51:53;32.17;;;28.73;;
13797;SDS011;6970;51.340;3.240;2023-04-09T10:57:12;36.80;;;32.70;;
13797;SDS011;6970;51.340;3.240;2023-04-09T10:59:40;36.53;;;30.60;;
13797;SDS011;6970;51.340;3.240;2023-04-09T11:07:59;41.93;;;33.07;;
13797;SDS011;6970;51.340;3.240;2023-04-09T11:10:28;35.70;;;31.87;;
13797;SDS011;6970;51.340;3.240;2023-04-09T11:12:56;35.40;;;31.63;;
13797;SDS011;6970;51.340;3.240;2023-04-09T11:15:23;39.20;;;33.40;;
13797;SDS011;6970;51.340;3.240;2023-04-09T11:17:50;40.27;;;35.73;;
13797;SDS011;6970;51.340;3.240;2023-04-09T11:20:21;35.80;;;32.00;;
13797;SDS011;6970;51.340;3.240;2023-04-09T11:22:50;38.37;;;34.10;;
13797;SDS011;6970;51.340;3.240;2023-04-09T11:25:19;38.87;;;32.93;;
13797;SDS011;6970;51.340;3.240;2023-04-09T11:27:47;41.23;;;35.00;;
13797;SDS011;6970;51.340;3.240;2023-04-09T11:30:14;37.13;;;31.83;;
13797;SDS011;6970;51.340;3.240;2023-04-09T11:32:42;39.13;;;34.67;;
13797;SDS011;6970;51.340;3.240;2023-04-09T11:35:12;39.53;;;34.43;;
13797;SDS011;6970;51.340;3.240;2023-04-09T11:37:41;36.50;;;31.93;;
13797;SDS011;6970;51.340;3.240;2023-04-09T11:40:19;38.37;;;33.77;;
13797;SDS011;6970;51.340;3.240;2023-04-09T11:42:52;38.80;;;33.27;;
13797;SDS011;6970;51.340;3.240;2023-04-09T11:45:21;33.87;;;30.37;;
13797;SDS011;6970;51.340;3.240;2023-04-09T11:47:54;40.30;;;34.57;;
13797;SDS011;6970;51.340;3.240;2023-04-09T11:50:21;38.50;;;33.70;;
13797;SDS011;6970;51.340;3.240;2023-04-09T11:52:49;36.03;;;31.87;;
13797;SDS011;6970;51.340;3.240;2023-04-09T11:55:26;41.10;;;33.57;;
13797;SDS011;6970;51.340;3.240;2023-04-09T11:57:58;36.93;;;32.40;;
13797;SDS011;6970;51.340;3.240;2023-04-09T12:00:28;39.87;;;34.37;;
13797;SDS011;6970;51.340;3.240;2023-04-09T12:02:58;40.37;;;33.97;;
13797;SDS011;6970;51.340;3.240;2023-04-09T12:05:29;37.43;;;33.27;;
13797;SDS011;6970;51.340;3.240;2023-04-09T12:08:07;35.37;;;31.63;;
13797;SDS011;6970;51.340;3.240;2023-04-09T12:10:35;40.23;;;34.97;;
13797;SDS011;6970;51.340;3.240;2023-04-09T12:13:10;43.30;;;37.67;;
13797;SDS011;6970;51.340;3.240;2023-04-09T12:15:38;36.13;;;31.77;;
13797;SDS011;6970;51.340;3.240;2023-04-09T12:18:11;44.70;;;38.10;;
13797;SDS011;6970;51.340;3.240;2023-04-09T12:20:39;44.43;;;36.43;;
13797;SDS011;6970;51.340;3.240;2023-04-09T12:23:12;46.67;;;37.93;;
13797;SDS011;6970;51.340;3.240;2023-04-09T12:25:40;42.13;;;35.13;;
13797;SDS011;6970;51.340;3.240;2023-04-09T12:28:13;41.63;;;36.13;;
13797;SDS011;6970;51.340;3.240;2023-04-09T12:30:42;44.47;;;35.70;;
13797;SDS011;6970;51.340;3.240;2023-04-09T12:33:09;48.63;;;38.13;;
13797;SDS011;6970;51.340;3.240;2023-04-09T12:35:36;42.97;;;37.77;;
13797;SDS011;6970;51.340;3.240;2023-04-09T12:38:04;48.20;;;39.53;;
13797;SDS011;6970;51.340;3.240;2023-04-09T12:40:31;48.87;;;38.37;;
13797;SDS011;6970;51.340;3.240;2023-04-09T12:42:58;44.47;;;36.43;;
13797;SDS011;6970;51.340;3.240;2023-04-09T12:45:26;42.00;;;35.90;;
13797;SDS011;6970;51.340;3.240;2023-04-09T12:47:54;49.07;;;39.40;;
13797;SDS011;6970;51.340;3.240;2023-04-09T12:50:22;48.93;;;38.97;;
13797;SDS011;6970;51.340;3.240;2023-04-09T12:52:49;47.37;;;38.83;;
13797;SDS011;6970;51.340;3.240;2023-04-09T12:55:16;47.97;;;39.20;;
13797;SDS011;6970;51.340;3.240;2023-04-09T12:57:44;42.03;;;34.80;;
13797;SDS011;6970;51.340;3.240;2023-04-09T13:00:12;44.83;;;36.47;;
13797;SDS011;6970;51.340;3.240;2023-04-09T13:02:41;50.70;;;37.93;;
13797;SDS011;6970;51.340;3.240;2023-04-09T13:05:10;46.67;;;37.03;;
13797;SDS011;6970;51.340;3.240;2023-04-09T13:07:38;45.87;;;36.63;;
13797;SDS011;6970;51.340;3.240;2023-04-09T13:10:08;45.57;;;37.60;;
13797;SDS011;6970;51.340;3.240;2023-04-09T13:12:35;43.93;;;36.40;;
13797;SDS011;6970;51.340;3.240;2023-04-09T13:15:02;50.00;;;39.17;;
13797;SDS011;6970;51.340;3.240;2023-04-09T13:17:29;50.23;;;39.57;;
13797;SDS011;6970;51.340;3.240;2023-04-09T13:19:56;43.60;;;35.00;;
13797;SDS011;6970;51.340;3.240;2023-04-09T13:22:23;48.23;;;36.97;;
13797;SDS011;6970;51.340;3.240;2023-04-09T13:24:50;44.77;;;36.53;;
13797;SDS011;6970;51.340;3.240;2023-04-09T13:27:17;41.43;;;34.57;;
13797;SDS011;6970;51.340;3.240;2023-04-09T13:29:45;47.90;;;37.33;;
13797;SDS011;6970;51.340;3.240;2023-04-09T13:32:12;51.10;;;38.37;;
13797;SDS011;6970;51.340;3.240;2023-04-09T13:34:39;47.63;;;37.03;;
13797;SDS011;6970;51.340;3.240;2023-04-09T13:37:06;45.53;;;35.63;;
13797;SDS011;6970;51.340;3.240;2023-04-09T13:39:33;45.47;;;36.47;;
13797;SDS011;6970;51.340;3.240;2023-04-09T13:42:07;50.87;;;38.67;;
13797;SDS011;6970;51.340;3.240;2023-04-09T13:44:39;49.27;;;37.60;;
13797;SDS011;6970;51.340;3.240;2023-04-09T13:47:10;48.50;;;38.30;;
13797;SDS011;6970;51.340;3.240;2023-04-09T13:49:38;50.13;;;36.30;;
13797;SDS011;6970;51.340;3.240;2023-04-09T13:52:06;45.23;;;34.53;;
13797;SDS011;6970;51.340;3.240;2023-04-09T13:54:34;49.30;;;35.60;;
13797;SDS011;6970;51.340;3.240;2023-04-09T13:57:01;44.07;;;35.03;;
13797;SDS011;6970;51.340;3.240;2023-04-09T13:59:29;49.60;;;36.73;;
13797;SDS011;6970;51.340;3.240;2023-04-09T14:01:56;44.57;;;35.43;;
13797;SDS011;6970;51.340;3.240;2023-04-09T14:04:23;43.23;;;32.73;;
13797;SDS011;6970;51.340;3.240;2023-04-09T14:06:50;43.20;;;34.27;;
13797;SDS011;6970;51.340;3.240;2023-04-09T14:09:17;45.83;;;35.43;;
13797;SDS011;6970;51.340;3.240;2023-04-09T14:11:44;47.70;;;36.07;;
13797;SDS011;6970;51.340;3.240;2023-04-09T14:14:11;44.80;;;35.67;;
13797;SDS011;6970;51.340;3.240;2023-04-09T14:16:38;41.73;;;31.87;;
13797;SDS011;6970;51.340;3.240;2023-04-09T14:19:06;43.97;;;33.03;;
13797;SDS011;6970;51.340;3.240;2023-04-09T14:21:33;36.10;;;30.63;;
13797;SDS011;6970;51.340;3.240;2023-04-09T14:24:00;38.73;;;28.63;;
13797;SDS011;6970;51.340;3.240;2023-04-09T14:26:27;39.03;;;29.77;;
13797;SDS011;6970;51.340;3.240;2023-04-09T14:28:54;36.77;;;29.80;;
13797;SDS011;6970;51.340;3.240;2023-04-09T14:31:21;38.30;;;28.97;;
13797;SDS011;6970;51.340;3.240;2023-04-09T14:33:48;37.57;;;29.77;;
13797;SDS011;6970;51.340;3.240;2023-04-09T14:36:16;35.77;;;27.50;;
13797;SDS011;6970;51.340;3.240;2023-04-09T14:38:43;34.17;;;28.53;;
13797;SDS011;6970;51.340;3.240;2023-04-09T14:41:10;38.43;;;30.13;;
13797;SDS011;6970;51.340;3.240;2023-04-09T14:43:37;42.60;;;32.47;;
13797;SDS011;6970;51.340;3.240;2023-04-09T14:46:04;36.87;;;28.90;;
13797;SDS011;6970;51.340;3.240;2023-04-09T14:48:37;40.03;;;31.37;;
13797;SDS011;6970;51.340;3.240;2023-04-09T14:51:05;38.83;;;29.90;;
13797;SDS011;6970;51.340;3.240;2023-04-09T14:53:34;33.50;;;28.17;;
13797;SDS011;6970;51.340;3.240;2023-04-09T14:56:01;36.53;;;29.87;;
13797;SDS011;6970;51.340;3.240;2023-04-09T14:58:28;37.33;;;28.77;;
13797;SDS011;6970;51.340;3.240;2023-04-09T15:00:55;39.70;;;29.67;;
13797;SDS011;6970;51.340;3.240;2023-04-09T15:03:22;39.87;;;30.60;;
13797;SDS011;6970;51.340;3.240;2023-04-09T15:05:50;42.93;;;31.97;;
13797;SDS011;6970;51.340;3.240;2023-04-09T15:08:17;44.77;;;31.13;;
13797;SDS011;6970;51.340;3.240;2023-04-09T15:10:44;36.37;;;28.30;;
13797;SDS011;6970;51.340;3.240;2023-04-09T15:13:11;35.13;;;27.87;;
13797;SDS011;6970;51.340;3.240;2023-04-09T15:15:41;34.77;;;28.10;;